createdAt,value
2022-10-27T00:01:11.453Z,76.12
2022-10-27T00:02:44.558Z,76.40
2022-10-27T00:04:16.412Z,76.22
2022-10-27T00:05:48.570Z,76.08
2022-10-27T00:07:20.143Z,75.94
2022-10-27T00:08:51.826Z,76.22
2022-10-27T00:10:23.630Z,76.33
2022-10-27T00:11:56.095Z,76.83
2022-10-27T00:13:28.868Z,76.84
2022-10-27T00:15:00.774Z,76.82
2022-10-27T00:16:32.498Z,76.51
2022-10-27T00:18:09.852Z,76.27
2022-10-27T00:19:41.589Z,76.53
2022-10-27T00:21:15.412Z,76.57
2022-10-27T00:22:47.585Z,76.47
2022-10-27T00:24:19.678Z,76.29
2022-10-27T00:25:54.388Z,76.76
2022-10-27T00:27:26.029Z,76.59
2022-10-27T00:28:58.325Z,77.17
2022-10-27T00:30:29.967Z,77.00
2022-10-27T00:32:01.813Z,77.50
2022-10-27T00:33:34.880Z,77.25
2022-10-27T00:35:07.139Z,77.46
2022-10-27T00:36:38.807Z,77.75
2022-10-27T00:38:10.429Z,77.59
2022-10-27T00:39:42.013Z,77.86
2022-10-27T00:41:25.157Z,77.50
2022-10-27T00:42:56.782Z,77.90
2022-10-27T00:44:32.170Z,77.64
2022-10-27T00:46:15.564Z,77.55
2022-10-27T00:47:48.281Z,77.70
2022-10-27T00:49:25.344Z,77.80
2022-10-27T00:50:59.780Z,77.63
2022-10-27T00:52:34.874Z,78.06
2022-10-27T00:54:07.217Z,77.71
2022-10-27T00:55:39.696Z,77.91
2022-10-27T00:57:12.461Z,78.03
2022-10-27T00:58:45.254Z,78.31
2022-10-27T01:00:17.927Z,77.93
2022-10-27T01:01:52.433Z,77.93
2022-10-27T01:03:24.237Z,78.11
2022-10-27T01:05:02.385Z,78.26
2022-10-27T01:06:36.490Z,78.52
2022-10-27T01:08:08.333Z,78.72
2022-10-27T01:09:44.359Z,78.41
2022-10-27T01:11:15.962Z,78.36
2022-10-27T01:12:48.717Z,78.39
2022-10-27T01:14:20.635Z,78.82
2022-10-27T01:16:06.210Z,78.77
2022-10-27T01:17:48.805Z,78.91
2022-10-27T01:19:46.803Z,79.10
2022-10-27T01:21:57.217Z,79.02
2022-10-27T01:23:39.511Z,79.41
2022-10-27T01:25:31.931Z,79.28
2022-10-27T01:27:07.455Z,79.43
2022-10-27T01:29:01.941Z,79.67
2022-10-27T01:30:39.906Z,79.70
2022-10-27T01:32:25.120Z,79.88
2022-10-27T01:34:03.384Z,79.87
2022-10-27T01:35:43.866Z,80.21
2022-10-27T01:37:21.431Z,79.92
2022-10-27T01:38:59.156Z,80.51
2022-10-27T01:40:37.473Z,79.93
2022-10-27T01:42:14.125Z,79.96
2022-10-27T01:43:49.141Z,80.17
2022-10-27T01:45:24.192Z,80.23
2022-10-27T01:46:57.057Z,80.17
2022-10-27T01:48:33.115Z,80.49
2022-10-27T01:50:06.307Z,80.00
2022-10-27T01:51:37.882Z,80.19
2022-10-27T01:53:11.067Z,80.15
2022-10-27T01:54:42.684Z,79.94
2022-10-27T01:56:35.390Z,79.74
2022-10-27T01:58:21.723Z,79.64
2022-10-27T02:00:03.049Z,79.87
2022-10-27T02:01:47.572Z,79.85
2022-10-27T02:03:25.345Z,80.28
2022-10-27T02:05:06.560Z,80.14
2022-10-27T02:06:45.585Z,80.21
2022-10-27T02:08:25.106Z,80.02
2022-10-27T02:10:03.877Z,80.58
2022-10-27T02:11:39.642Z,80.43
2022-10-27T02:13:12.153Z,80.87
2022-10-27T02:14:45.158Z,80.65
2022-10-27T02:16:25.211Z,80.93
2022-10-27T02:18:00.330Z,81.20
2022-10-27T02:19:35.308Z,81.33
2022-10-27T02:21:10.109Z,81.20
2022-10-27T02:22:44.125Z,81.55
2022-10-27T02:24:17.453Z,81.34
2022-10-27T02:25:56.374Z,81.38
2022-10-27T02:27:34.828Z,81.46
2022-10-27T02:29:12.921Z,81.45
2022-10-27T02:32:22.444Z,82.08
2022-10-27T02:33:55.229Z,81.99
2022-10-27T02:35:27.340Z,81.88
2022-10-27T02:37:00.780Z,82.11
2022-10-27T02:38:32.378Z,81.74
2022-10-27T02:40:05.144Z,81.85
2022-10-27T02:41:36.743Z,81.99
2022-10-27T02:43:08.327Z,81.98
2022-10-27T02:44:39.902Z,82.04
2022-10-27T02:46:11.504Z,82.18
2022-10-27T02:47:43.129Z,81.77
2022-10-27T02:49:14.733Z,81.79
2022-10-27T02:50:46.347Z,81.83
2022-10-27T02:52:19.280Z,81.70
2022-10-27T02:53:50.896Z,82.05
2022-10-27T02:55:22.557Z,81.90
2022-10-27T02:56:54.151Z,81.89
2022-10-27T02:58:25.849Z,81.76
2022-10-27T02:59:57.417Z,81.92
2022-10-27T03:01:29.441Z,81.90
2022-10-27T03:03:02.732Z,82.17
2022-10-27T03:04:34.362Z,82.15
2022-10-27T03:06:06.360Z,82.60
2022-10-27T03:07:39.334Z,82.57
2022-10-27T03:09:10.957Z,82.35
2022-10-27T03:10:43.866Z,82.57
2022-10-27T03:12:15.539Z,82.59
2022-10-27T03:13:47.165Z,83.09
2022-10-27T03:15:18.772Z,83.16
2022-10-27T03:16:50.394Z,83.10
2022-10-27T03:18:22.123Z,83.35
2022-10-27T03:19:53.842Z,83.24
2022-10-27T03:21:25.470Z,83.29
2022-10-27T03:22:58.508Z,83.35
2022-10-27T03:24:30.147Z,83.43
2022-10-27T03:26:01.796Z,83.36
2022-10-27T03:27:33.402Z,83.35
2022-10-27T03:29:05.024Z,83.54
2022-10-27T03:30:36.698Z,83.55
2022-10-27T03:32:08.280Z,83.50
2022-10-27T03:33:39.970Z,83.27
2022-10-27T03:35:11.573Z,83.41
2022-10-27T03:36:43.191Z,83.25
2022-10-27T03:38:16.158Z,83.21
2022-10-27T03:39:47.764Z,83.19
2022-10-27T03:41:19.380Z,83.00
2022-10-27T03:42:51.315Z,82.99
2022-10-27T03:44:23.166Z,83.05
2022-10-27T03:45:57.221Z,83.03
2022-10-27T03:47:31.830Z,82.82
2022-10-27T03:49:03.436Z,82.82
2022-10-27T03:50:35.233Z,82.80
2022-10-27T03:52:06.898Z,82.51
2022-10-27T03:53:39.883Z,82.57
2022-10-27T03:55:11.480Z,82.55
2022-10-27T03:56:43.081Z,82.94
2022-10-27T03:58:16.826Z,82.62
2022-10-27T03:59:48.983Z,82.76
2022-10-27T04:01:20.730Z,82.72
2022-10-27T04:02:54.349Z,82.90
2022-10-27T04:04:26.129Z,82.96
2022-10-27T04:05:57.857Z,82.96
2022-10-27T04:07:29.497Z,82.91
2022-10-27T04:09:02.692Z,82.88
2022-10-27T04:10:34.391Z,82.86
2022-10-27T04:12:06.608Z,82.73
2022-10-27T04:13:38.346Z,82.72
2022-10-27T04:15:10.513Z,82.91
2022-10-27T04:16:42.190Z,82.92
2022-10-27T04:18:13.949Z,82.74
2022-10-27T04:19:45.886Z,82.89
2022-10-27T04:21:17.564Z,82.84
2022-10-27T04:22:49.512Z,82.95
2022-10-27T04:24:22.730Z,82.82
2022-10-27T04:25:54.417Z,82.86
2022-10-27T04:27:26.016Z,82.99
2022-10-27T04:28:57.630Z,83.03
2022-10-27T04:30:29.304Z,83.33
2022-10-27T04:32:01.030Z,83.46
2022-10-27T04:33:32.773Z,83.77
2022-10-27T04:35:04.961Z,83.27
2022-10-27T04:36:36.600Z,83.42
2022-10-27T04:38:08.236Z,83.10
2022-10-27T04:39:41.237Z,83.03
2022-10-27T04:41:12.833Z,83.06
2022-10-27T04:42:45.875Z,82.97
2022-10-27T04:44:17.497Z,83.05
2022-10-27T04:45:49.100Z,83.01
2022-10-27T04:47:20.780Z,82.76
2022-10-27T04:48:52.629Z,82.91
2022-10-27T04:50:24.275Z,82.77
2022-10-27T04:51:56.101Z,82.99
2022-10-27T04:53:27.716Z,82.87
2022-10-27T04:55:00.779Z,82.54
2022-10-27T04:56:32.466Z,82.69
2022-10-27T04:58:06.856Z,82.68
2022-10-27T04:59:38.630Z,82.76
2022-10-27T05:01:12.047Z,82.69
2022-10-27T05:02:43.874Z,82.72
2022-10-27T05:04:15.545Z,82.42
2022-10-27T05:05:47.194Z,82.38
2022-10-27T05:07:18.826Z,82.49
2022-10-27T05:08:50.499Z,82.56
2022-10-27T05:10:24.415Z,82.54
2022-10-27T05:11:56.029Z,82.67
2022-10-27T05:13:27.680Z,82.53
2022-10-27T05:14:59.383Z,82.55
2022-10-27T05:16:31.070Z,82.55
2022-10-27T05:18:04.043Z,82.42
2022-10-27T05:19:37.250Z,82.33
2022-10-27T05:21:09.146Z,82.51
2022-10-27T05:22:40.895Z,82.30
2022-10-27T05:24:12.560Z,82.48
2022-10-27T05:25:45.570Z,82.39
2022-10-27T05:27:17.188Z,82.46
2022-10-27T05:28:48.964Z,82.35
2022-10-27T05:30:20.629Z,82.24
2022-10-27T05:31:53.003Z,82.13
2022-10-27T05:33:25.222Z,82.27
2022-10-27T05:34:56.891Z,82.42
2022-10-27T05:36:28.489Z,82.46
2022-10-27T05:38:00.159Z,82.39
2022-10-27T05:39:31.909Z,82.36
2022-10-27T05:41:05.584Z,82.47
2022-10-27T05:42:37.236Z,82.30
2022-10-27T05:44:09.178Z,82.40
2022-10-27T05:45:40.825Z,82.23
2022-10-27T05:47:12.570Z,82.51
2022-10-27T05:48:44.308Z,82.44
2022-10-27T05:50:15.977Z,82.52
2022-10-27T05:51:49.134Z,82.28
2022-10-27T05:53:21.377Z,82.62
2022-10-27T05:54:53.009Z,82.55
2022-10-27T05:56:26.101Z,82.73
2022-10-27T05:58:00.226Z,82.99
2022-10-27T05:59:32.005Z,82.86
2022-10-27T06:01:03.672Z,82.83
2022-10-27T06:02:35.438Z,82.91
2022-10-27T06:04:07.116Z,82.88
2022-10-27T06:05:38.737Z,83.16
2022-10-27T06:07:10.371Z,83.12
2022-10-27T06:08:42.077Z,83.17
2022-10-27T06:10:13.705Z,83.12
2022-10-27T06:11:46.854Z,83.38
2022-10-27T06:13:19.136Z,83.30
2022-10-27T06:14:50.754Z,83.39
2022-10-27T06:16:25.532Z,83.17
2022-10-27T06:17:57.286Z,83.24
2022-10-27T06:19:28.912Z,83.31
2022-10-27T06:21:00.661Z,83.34
2022-10-27T06:22:32.336Z,83.45
2022-10-27T06:25:40.993Z,83.39
2022-10-27T06:27:13.965Z,83.38
2022-10-27T06:28:45.739Z,83.28
2022-10-27T06:30:17.345Z,83.52
2022-10-27T06:31:48.992Z,83.43
2022-10-27T06:33:20.715Z,83.31
2022-10-27T06:34:52.369Z,83.31
2022-10-27T06:36:24.341Z,83.18
2022-10-27T06:37:55.970Z,83.02
2022-10-27T06:39:28.939Z,83.01
2022-10-27T06:41:00.598Z,83.13
2022-10-27T06:42:48.608Z,83.02
2022-10-27T06:44:21.194Z,83.28
2022-10-27T06:45:52.885Z,83.09
2022-10-27T06:47:24.539Z,83.27
2022-10-27T06:48:56.284Z,83.32
2022-10-27T06:50:28.536Z,83.45
2022-10-27T06:52:00.349Z,83.22
2022-10-27T06:53:31.979Z,83.27
2022-10-27T06:55:04.890Z,83.39
2022-10-27T06:56:36.559Z,83.44
2022-10-27T06:58:09.700Z,83.25
2022-10-27T06:59:41.427Z,83.03
2022-10-27T07:01:13.252Z,83.11
2022-10-27T07:02:45.298Z,83.15
2022-10-27T07:04:16.926Z,83.20
2022-10-27T07:05:49.104Z,83.00
2022-10-27T07:07:20.882Z,83.18
2022-10-27T07:08:52.956Z,83.06
2022-10-27T07:10:24.810Z,82.97
2022-10-27T07:11:56.590Z,83.16
2022-10-27T07:13:29.670Z,82.98
2022-10-27T07:15:01.555Z,83.03
2022-10-27T07:16:35.011Z,83.16
2022-10-27T07:18:08.614Z,82.91
2022-10-27T07:19:40.250Z,83.01
2022-10-27T07:21:11.874Z,82.78
2022-10-27T07:22:43.456Z,82.93
2022-10-27T07:24:15.108Z,82.56
2022-10-27T07:25:48.705Z,82.46
2022-10-27T07:27:20.564Z,82.43
2022-10-27T07:28:53.589Z,81.92
2022-10-27T07:30:28.117Z,82.05
2022-10-27T07:31:59.711Z,81.65
2022-10-27T07:33:31.444Z,81.62
2022-10-27T07:35:03.347Z,81.87
2022-10-27T07:36:35.049Z,81.51
2022-10-27T07:38:07.835Z,81.28
2022-10-27T07:39:39.415Z,80.78
2022-10-27T07:41:11.232Z,80.49
2022-10-27T07:42:44.835Z,80.42
2022-10-27T07:44:18.098Z,80.29
2022-10-27T07:45:49.754Z,79.76
2022-10-27T07:47:21.432Z,79.98
2022-10-27T07:48:53.125Z,79.41
2022-10-27T07:50:33.150Z,78.95
2022-10-27T07:52:05.102Z,78.98
2022-10-27T07:53:36.763Z,78.45
2022-10-27T07:55:11.657Z,78.54
2022-10-27T07:56:48.152Z,78.11
2022-10-27T07:58:19.871Z,77.51
2022-10-27T07:59:52.840Z,77.51
2022-10-27T08:01:24.619Z,77.81
2022-10-27T08:02:59.643Z,77.12
2022-10-27T08:04:31.276Z,76.86
2022-10-27T08:06:05.982Z,76.68
2022-10-27T08:07:38.799Z,76.44
2022-10-27T08:09:10.712Z,75.79
2022-10-27T08:10:44.423Z,75.17
2022-10-27T08:12:16.082Z,74.98
2022-10-27T08:13:48.095Z,74.59
2022-10-27T08:15:21.249Z,74.91
2022-10-27T08:16:52.867Z,74.69
2022-10-27T08:18:24.507Z,74.83
2022-10-27T08:19:56.230Z,74.69
2022-10-27T08:21:27.929Z,74.27
2022-10-27T08:23:00.831Z,73.78
2022-10-27T08:24:32.566Z,73.79
2022-10-27T08:26:04.317Z,74.05
2022-10-27T08:27:36.207Z,73.41
2022-10-27T08:29:07.819Z,72.74
2022-10-27T08:30:48.330Z,73.06
2022-10-27T08:32:23.432Z,72.91
2022-10-27T08:33:55.180Z,73.24
2022-10-27T08:35:28.376Z,72.92
2022-10-27T08:37:00.121Z,72.73
2022-10-27T08:38:32.870Z,72.61
2022-10-27T08:40:06.011Z,72.53
2022-10-27T08:41:43.202Z,72.32
2022-10-27T08:43:36.078Z,72.17
2022-10-27T08:45:12.073Z,72.42
2022-10-27T08:46:49.508Z,71.78
2022-10-27T08:48:25.371Z,71.86
2022-10-27T08:50:02.401Z,71.76
2022-10-27T08:51:35.628Z,71.73
2022-10-27T08:53:11.313Z,71.17
2022-10-27T08:54:47.917Z,70.81
2022-10-27T08:56:21.711Z,70.73
2022-10-27T08:58:00.982Z,70.40
2022-10-27T08:59:34.784Z,70.32
2022-10-27T09:01:17.703Z,70.16
2022-10-27T09:03:04.251Z,70.23
2022-10-27T09:04:57.102Z,70.28
2022-10-27T09:06:31.640Z,70.00
2022-10-27T09:08:13.259Z,69.68
2022-10-27T09:09:52.465Z,69.29
2022-10-27T09:11:32.702Z,68.95
2022-10-27T09:13:12.252Z,69.21
2022-10-27T09:15:04.046Z,68.81
2022-10-27T09:16:42.005Z,68.81
2022-10-27T09:18:22.476Z,68.56
2022-10-27T09:20:01.277Z,68.31
2022-10-27T09:21:36.786Z,68.38
2022-10-27T09:23:13.967Z,68.11
2022-10-27T09:24:52.271Z,68.24
2022-10-27T09:26:28.783Z,67.99
2022-10-27T09:28:00.452Z,67.85
2022-10-27T09:29:36.255Z,67.81
2022-10-27T09:31:14.290Z,67.51
2022-10-27T09:32:49.392Z,67.56
2022-10-27T09:34:27.573Z,66.49
2022-10-27T09:36:00.229Z,67.13
2022-10-27T09:37:33.776Z,67.02
2022-10-27T09:39:05.651Z,67.23
2022-10-27T09:40:37.626Z,66.55
2022-10-27T09:42:09.252Z,66.50
2022-10-27T09:43:41.009Z,66.31
2022-10-27T09:45:15.955Z,66.33
2022-10-27T09:46:52.419Z,66.09
2022-10-27T09:48:26.594Z,65.83
2022-10-27T09:50:00.252Z,65.32
2022-10-27T09:51:37.802Z,65.34
2022-10-27T09:53:37.035Z,64.78
2022-10-27T09:55:09.080Z,64.36
2022-10-27T09:56:40.825Z,64.35
2022-10-27T09:58:12.648Z,64.45
2022-10-27T09:59:50.140Z,64.25
2022-10-27T10:01:21.850Z,64.84
2022-10-27T10:02:59.960Z,64.34
2022-10-27T10:04:34.203Z,64.29
2022-10-27T10:06:24.314Z,64.31
2022-10-27T10:08:11.685Z,64.36
2022-10-27T10:09:43.404Z,64.20
2022-10-27T10:11:20.574Z,64.04
2022-10-27T10:13:07.764Z,64.24
2022-10-27T10:14:39.402Z,64.24
2022-10-27T10:16:14.760Z,63.83
2022-10-27T10:17:58.952Z,64.03
2022-10-27T10:19:30.811Z,63.82
2022-10-27T10:21:04.802Z,63.79
2022-10-27T10:22:40.291Z,63.29
2022-10-27T10:24:18.643Z,63.21
2022-10-27T10:25:52.711Z,63.41
2022-10-27T10:27:28.645Z,63.33
2022-10-27T10:29:08.469Z,63.51
2022-10-27T10:30:40.054Z,63.08
2022-10-27T10:32:17.461Z,63.09
2022-10-27T10:33:49.338Z,63.15
2022-10-27T10:35:45.270Z,62.88
2022-10-27T10:37:35.014Z,62.80
2022-10-27T10:39:21.649Z,63.09
2022-10-27T10:41:00.132Z,63.25
2022-10-27T10:42:31.755Z,63.09
2022-10-27T10:44:11.873Z,62.59
2022-10-27T10:45:52.301Z,62.00
2022-10-27T10:47:27.747Z,62.11
2022-10-27T10:49:00.826Z,62.00
2022-10-27T10:50:43.292Z,61.85
2022-10-27T10:52:18.685Z,62.17
2022-10-27T10:53:52.138Z,62.15
2022-10-27T10:55:28.141Z,61.57
2022-10-27T10:57:02.254Z,61.17
2022-10-27T10:58:36.393Z,61.44
2022-10-27T11:00:16.812Z,61.36
2022-10-27T11:01:53.225Z,61.37
2022-10-27T11:03:27.424Z,61.40
2022-10-27T11:05:11.350Z,61.20
2022-10-27T11:06:59.464Z,61.12
2022-10-27T11:08:42.436Z,60.86
2022-10-27T11:10:18.078Z,60.68
2022-10-27T11:11:50.816Z,60.70
2022-10-27T11:13:29.181Z,60.41
2022-10-27T11:15:06.033Z,60.14
2022-10-27T11:16:39.560Z,60.39
2022-10-27T11:18:22.017Z,60.36
2022-10-27T11:19:56.987Z,60.49
2022-10-27T11:21:35.519Z,60.43
2022-10-27T11:23:16.264Z,60.22
2022-10-27T11:24:55.807Z,60.01
2022-10-27T11:26:31.973Z,60.33
2022-10-27T11:28:15.835Z,60.04
2022-10-27T11:29:55.403Z,60.08
2022-10-27T11:31:37.963Z,59.62
2022-10-27T11:33:19.629Z,59.61
2022-10-27T11:35:01.538Z,60.03
2022-10-27T11:36:39.513Z,59.98
2022-10-27T11:38:20.518Z,59.48
2022-10-27T11:40:02.570Z,59.92
2022-10-27T11:41:42.222Z,60.16
2022-10-27T11:43:21.363Z,59.92
2022-10-27T11:45:05.197Z,59.98
2022-10-27T11:46:43.331Z,59.97
2022-10-27T11:48:21.678Z,59.88
2022-10-27T11:49:59.207Z,60.07
2022-10-27T11:51:35.421Z,60.06
2022-10-27T11:53:12.346Z,59.95
2022-10-27T11:54:46.123Z,59.89
2022-10-27T11:56:35.287Z,59.39
2022-10-27T11:58:16.875Z,59.32
2022-10-27T12:00:06.940Z,59.38
2022-10-27T12:01:54.484Z,59.50
2022-10-27T12:03:41.332Z,59.21
2022-10-27T12:05:22.365Z,59.54
2022-10-27T12:07:06.207Z,59.37
2022-10-27T12:08:51.912Z,58.92
2022-10-27T12:10:33.520Z,58.83
2022-10-27T12:12:11.427Z,59.07
2022-10-27T12:13:50.842Z,58.87
2022-10-27T12:15:29.221Z,58.88
2022-10-27T12:17:08.462Z,58.83
2022-10-27T12:18:48.199Z,58.21
2022-10-27T12:20:24.412Z,57.85
2022-10-27T12:22:03.831Z,58.36
2022-10-27T12:23:43.188Z,57.96
2022-10-27T12:25:21.326Z,57.84
2022-10-27T12:26:57.405Z,57.98
2022-10-27T12:28:30.812Z,57.94
2022-10-27T12:30:08.732Z,57.67
2022-10-27T12:31:48.050Z,56.99
2022-10-27T12:33:25.507Z,57.12
2022-10-27T12:35:03.697Z,56.49
2022-10-27T12:36:41.812Z,56.28
2022-10-27T12:38:19.706Z,56.15
2022-10-27T12:39:57.708Z,56.17
2022-10-27T12:41:33.723Z,55.90
2022-10-27T12:43:16.769Z,55.54
2022-10-27T12:46:49.234Z,55.36
2022-10-27T12:48:31.144Z,55.80
2022-10-27T12:50:17.874Z,55.30
2022-10-27T12:51:58.948Z,55.82
2022-10-27T12:53:40.143Z,55.78
2022-10-27T12:55:27.201Z,55.14
2022-10-27T12:57:16.172Z,55.13
2022-10-27T12:58:55.404Z,55.36
2022-10-27T13:00:27.973Z,54.89
2022-10-27T13:02:05.823Z,54.72
2022-10-27T13:03:52.523Z,54.64
2022-10-27T13:05:54.093Z,54.62
2022-10-27T13:07:45.948Z,54.52
2022-10-27T13:09:43.717Z,54.93
2022-10-27T13:12:01.880Z,54.75
2022-10-27T13:14:02.867Z,54.38
2022-10-27T13:15:50.939Z,54.06
2022-10-27T13:17:31.791Z,54.11
2022-10-27T13:19:26.126Z,54.13
2022-10-27T13:21:05.201Z,54.42
2022-10-27T13:22:43.910Z,54.35
2022-10-27T13:24:27.833Z,54.18
2022-10-27T13:26:13.824Z,54.03
2022-10-27T13:27:53.157Z,53.91
2022-10-27T13:29:34.874Z,54.02
2022-10-27T13:31:15.707Z,54.44
2022-10-27T13:32:53.982Z,54.11
2022-10-27T13:34:25.632Z,54.31
2022-10-27T13:36:15.549Z,54.42
2022-10-27T13:37:48.701Z,54.40
2022-10-27T13:39:45.401Z,54.45
2022-10-27T13:41:48.932Z,54.48
2022-10-27T13:43:45.100Z,54.35
2022-10-27T13:45:49.333Z,53.39
2022-10-27T13:47:24.050Z,53.84
2022-10-27T13:48:57.089Z,53.78
2022-10-27T13:50:32.541Z,53.41
2022-10-27T13:52:14.307Z,53.25
2022-10-27T13:53:45.902Z,53.82
2022-10-27T13:55:34.344Z,53.44
2022-10-27T13:57:46.252Z,52.47
2022-10-27T13:59:24.750Z,52.88
2022-10-27T14:01:05.293Z,53.63
2022-10-27T14:02:49.064Z,53.47
2022-10-27T14:04:37.331Z,53.55
2022-10-27T14:06:20.987Z,54.21
2022-10-27T14:07:53.663Z,54.34
2022-10-27T14:09:32.284Z,54.57
2022-10-27T14:11:10.787Z,55.02
2022-10-27T14:12:42.505Z,55.27
2022-10-27T14:14:23.069Z,55.63
2022-10-27T14:15:59.774Z,55.59
2022-10-27T14:17:31.671Z,55.96
2022-10-27T14:19:05.614Z,56.40
2022-10-27T14:20:41.034Z,56.25
2022-10-27T14:22:27.368Z,56.78
2022-10-27T14:24:03.769Z,56.69
2022-10-27T14:25:35.404Z,57.03
2022-10-27T14:27:13.846Z,57.07
2022-10-27T14:28:47.339Z,57.40
2022-10-27T14:30:21.745Z,57.19
2022-10-27T14:32:13.087Z,57.43
2022-10-27T14:33:44.827Z,57.51
2022-10-27T14:35:25.622Z,57.47
2022-10-27T14:36:58.883Z,57.37
2022-10-27T14:40:17.124Z,57.60
2022-10-27T14:41:50.898Z,57.87
2022-10-27T14:43:25.554Z,57.84
2022-10-27T14:45:01.833Z,58.10
2022-10-27T14:46:40.934Z,57.88
2022-10-27T14:48:23.635Z,58.11
2022-10-27T14:49:59.185Z,58.33
2022-10-27T14:51:34.378Z,58.46
2022-10-27T14:53:23.463Z,58.84
2022-10-27T14:54:56.612Z,59.06
2022-10-27T14:56:30.244Z,59.15
2022-10-27T14:58:02.577Z,59.46
2022-10-27T14:59:34.746Z,59.45
2022-10-27T15:01:25.716Z,59.48
2022-10-27T15:03:04.074Z,59.65
2022-10-27T15:04:36.215Z,59.83
2022-10-27T15:06:16.200Z,59.85
2022-10-27T15:07:52.235Z,59.96
2022-10-27T15:09:32.555Z,60.08
2022-10-27T15:11:06.617Z,60.12
2022-10-27T15:12:38.826Z,60.18
2022-10-27T15:14:10.859Z,60.49
2022-10-27T15:15:44.786Z,60.47
2022-10-27T15:17:23.270Z,60.67
2022-10-27T15:18:55.170Z,60.82
2022-10-27T15:20:27.231Z,60.73
2022-10-27T15:22:00.314Z,60.87
2022-10-27T15:23:33.393Z,60.97
2022-10-27T15:25:12.500Z,60.95
2022-10-27T15:26:44.720Z,61.13
2022-10-27T15:28:17.333Z,61.14
2022-10-27T15:29:51.723Z,61.21
2022-10-27T15:31:25.280Z,61.39
2022-10-27T15:33:00.006Z,61.47
2022-10-27T15:34:35.820Z,61.40
2022-10-27T15:36:24.306Z,61.23
2022-10-27T15:37:56.467Z,61.68
2022-10-27T15:39:28.140Z,61.74
2022-10-27T15:41:17.314Z,61.91
2022-10-27T15:42:53.149Z,61.97
2022-10-27T15:44:27.173Z,62.03
2022-10-27T15:46:09.882Z,62.10
2022-10-27T15:47:47.479Z,62.10
2022-10-27T15:49:28.164Z,62.24
2022-10-27T15:51:02.612Z,62.29
2022-10-27T15:52:34.567Z,62.55
2022-10-27T15:56:00.285Z,62.77
2022-10-27T15:57:35.684Z,62.88
2022-10-27T15:59:13.983Z,63.00
2022-10-27T16:01:01.854Z,63.15
2022-10-27T16:02:35.769Z,63.21
2022-10-27T16:04:24.712Z,63.44
2022-10-27T16:06:20.118Z,63.77
2022-10-27T16:07:51.929Z,63.70
2022-10-27T16:09:37.691Z,63.78
2022-10-27T16:11:12.762Z,63.55
2022-10-27T16:12:45.783Z,63.77
2022-10-27T16:14:17.570Z,63.95
2022-10-27T16:15:49.627Z,63.91
2022-10-27T16:17:24.301Z,64.03
2022-10-27T16:18:56.233Z,64.13
2022-10-27T16:20:33.921Z,64.08
2022-10-27T16:22:05.658Z,64.12
2022-10-27T16:23:38.890Z,63.98
2022-10-27T16:25:13.278Z,64.38
2022-10-27T16:26:45.654Z,64.45
2022-10-27T16:28:23.381Z,64.54
2022-10-27T16:29:58.611Z,64.74
2022-10-27T16:31:30.584Z,64.84
2022-10-27T16:33:04.331Z,64.63
2022-10-27T16:34:35.970Z,64.86
2022-10-27T16:36:11.944Z,64.91
2022-10-27T16:37:43.788Z,64.99
2022-10-27T16:39:15.880Z,64.99
2022-10-27T16:40:48.388Z,65.22
2022-10-27T16:42:20.377Z,65.28
2022-10-27T16:43:53.590Z,65.19
2022-10-27T16:45:25.398Z,65.18
2022-10-27T16:46:58.010Z,65.34
2022-10-27T16:48:32.882Z,65.56
2022-10-27T16:50:09.663Z,65.54
2022-10-27T16:51:41.691Z,65.47
2022-10-27T16:53:14.023Z,65.64
2022-10-27T16:54:45.757Z,65.60
2022-10-27T16:56:18.281Z,65.82
2022-10-27T16:57:50.177Z,65.90
2022-10-27T16:59:23.497Z,65.94
2022-10-27T17:00:55.653Z,65.90
2022-10-27T17:02:27.651Z,66.19
2022-10-27T17:04:00.949Z,65.94
2022-10-27T17:05:32.576Z,66.07
2022-10-27T17:07:04.501Z,66.21
2022-10-27T17:08:37.103Z,66.24
2022-10-27T17:10:10.242Z,66.17
2022-10-27T17:11:42.488Z,66.12
2022-10-27T17:13:14.652Z,66.30
2022-10-27T17:14:50.712Z,66.23
2022-10-27T17:16:23.329Z,66.38
2022-10-27T17:17:55.026Z,66.43
2022-10-27T17:19:26.643Z,66.30
2022-10-27T17:20:59.225Z,66.37
2022-10-27T17:22:30.894Z,66.53
2022-10-27T17:24:03.095Z,66.56
2022-10-27T17:25:34.873Z,66.65
2022-10-27T17:27:06.611Z,66.69
2022-10-27T17:28:38.701Z,66.65
2022-10-27T17:30:12.824Z,66.67
2022-10-27T17:31:44.530Z,66.94
2022-10-27T17:33:16.463Z,66.79
2022-10-27T17:34:48.163Z,66.98
2022-10-27T17:36:19.832Z,66.93
2022-10-27T17:37:51.752Z,66.98
2022-10-27T17:39:23.789Z,67.17
2022-10-27T17:40:57.033Z,67.22
2022-10-27T17:42:30.859Z,67.33
2022-10-27T17:44:02.652Z,67.33
2022-10-27T17:45:35.838Z,67.31
2022-10-27T17:47:07.629Z,67.49
2022-10-27T17:48:41.048Z,67.55
2022-10-27T17:50:13.033Z,67.65
2022-10-27T17:51:44.900Z,68.16
2022-10-27T17:53:16.672Z,68.13
2022-10-27T17:54:48.291Z,68.09
2022-10-27T17:56:22.389Z,68.05
2022-10-27T17:57:55.932Z,68.11
2022-10-27T17:59:28.680Z,68.30
2022-10-27T18:01:07.776Z,68.38
2022-10-27T18:02:39.545Z,68.33
2022-10-27T18:04:12.003Z,68.54
2022-10-27T18:05:43.816Z,68.47
2022-10-27T18:07:15.965Z,68.56
2022-10-27T18:08:52.901Z,68.65
2022-10-27T18:10:25.887Z,68.93
2022-10-27T18:11:57.527Z,68.83
2022-10-27T18:13:30.614Z,68.82
2022-10-27T18:15:17.949Z,68.91
2022-10-27T18:16:55.331Z,69.18
2022-10-27T18:18:27.251Z,69.08
2022-10-27T18:19:58.892Z,69.13
2022-10-27T18:21:36.434Z,69.34
2022-10-27T18:23:08.216Z,69.46
2022-10-27T18:24:42.258Z,69.48
2022-10-27T18:26:14.114Z,69.51
2022-10-27T18:27:49.948Z,69.51
2022-10-27T18:29:23.881Z,69.71
2022-10-27T18:31:04.517Z,69.92
2022-10-27T18:32:37.664Z,70.01
2022-10-27T18:34:11.176Z,70.06
2022-10-27T18:35:42.818Z,69.94
2022-10-27T18:37:14.518Z,70.10
2022-10-27T18:38:51.954Z,70.22
2022-10-27T18:40:23.611Z,70.23
2022-10-27T18:41:55.288Z,70.07
2022-10-27T18:43:28.517Z,70.30
2022-10-27T18:45:00.254Z,70.38
2022-10-27T18:46:32.045Z,70.15
2022-10-27T18:48:05.868Z,70.14
2022-10-27T18:49:48.060Z,70.45
2022-10-27T18:51:22.031Z,70.53
2022-10-27T18:52:53.974Z,70.65
2022-10-27T18:54:26.037Z,70.77
2022-10-27T18:56:00.791Z,70.89
2022-10-27T18:57:32.455Z,70.98
2022-10-27T18:59:06.126Z,70.78
2022-10-27T19:00:37.788Z,70.77
2022-10-27T19:02:13.433Z,70.97
2022-10-27T19:03:51.822Z,70.98
2022-10-27T19:05:24.555Z,71.05
2022-10-27T19:06:56.233Z,70.98
2022-10-27T19:08:28.178Z,71.21
2022-10-27T19:09:59.845Z,71.08
2022-10-27T19:11:34.895Z,71.26
2022-10-27T19:13:06.643Z,71.55
2022-10-27T19:14:38.521Z,71.46
2022-10-27T19:16:12.266Z,71.68
2022-10-27T19:17:44.781Z,71.92
2022-10-27T19:19:17.871Z,71.73
2022-10-27T19:20:57.136Z,71.91
2022-10-27T19:22:29.089Z,72.10
2022-10-27T19:24:04.039Z,72.44
2022-10-27T19:25:35.719Z,72.27
2022-10-27T19:27:07.399Z,72.27
2022-10-27T19:28:41.099Z,72.46
2022-10-27T19:30:21.996Z,72.47
2022-10-27T19:31:54.361Z,72.63
2022-10-27T19:33:26.821Z,72.68
2022-10-27T19:35:00.129Z,72.79
2022-10-27T19:36:43.910Z,72.70
2022-10-27T19:38:16.152Z,72.95
2022-10-27T19:39:47.980Z,72.94
2022-10-27T19:41:22.313Z,72.75
2022-10-27T19:42:54.229Z,72.66
2022-10-27T19:44:26.372Z,72.69
2022-10-27T19:46:01.009Z,72.62
2022-10-27T19:47:33.254Z,72.80
2022-10-27T19:49:08.684Z,72.69
2022-10-27T19:50:44.007Z,72.78
2022-10-27T19:52:18.500Z,72.56
2022-10-27T19:53:50.418Z,72.44
2022-10-27T19:55:22.179Z,72.58
2022-10-27T19:56:53.994Z,72.32
2022-10-27T19:58:26.586Z,72.60
2022-10-27T19:59:58.258Z,72.64
2022-10-27T20:01:35.095Z,72.83
2022-10-27T20:03:07.154Z,72.83
2022-10-27T20:04:39.312Z,73.28
2022-10-27T20:06:12.499Z,73.37
2022-10-27T20:07:45.685Z,73.42
2022-10-27T20:11:09.523Z,73.59
2022-10-27T20:12:41.463Z,73.73
2022-10-27T20:14:14.423Z,73.61
2022-10-27T20:15:46.325Z,73.78
2022-10-27T20:17:19.508Z,73.82
2022-10-27T20:18:51.827Z,73.97
2022-10-27T20:20:24.120Z,73.87
2022-10-27T20:21:57.515Z,73.93
2022-10-27T20:23:29.788Z,73.95
2022-10-27T20:25:01.640Z,73.66
2022-10-27T20:26:33.299Z,73.75
2022-10-27T20:28:05.370Z,73.81
2022-10-27T20:29:36.984Z,73.74
2022-10-27T20:31:12.871Z,73.86
2022-10-27T20:32:44.577Z,73.99
2022-10-27T20:34:16.321Z,73.99
2022-10-27T20:35:48.246Z,73.98
2022-10-27T20:37:21.466Z,74.13
2022-10-27T20:38:53.537Z,74.08
2022-10-27T20:40:25.326Z,74.23